createdAt,value
2023-01-09T00:00:07.078Z,98.32
2023-01-09T00:01:07.033Z,98.32
2023-01-09T00:02:06.973Z,98.11
2023-01-09T00:03:07.184Z,98.11
2023-01-09T00:04:07.051Z,98.11
2023-01-09T00:05:06.998Z,98.01
2023-01-09T00:06:06.993Z,98.11
2023-01-09T00:07:06.935Z,98.22
2023-01-09T00:08:06.930Z,98.22
2023-01-09T00:09:06.881Z,98.22
2023-01-09T00:10:06.941Z,98.32
2023-01-09T00:11:06.874Z,98.32
2023-01-09T00:12:06.882Z,98.11
2023-01-09T00:13:06.859Z,98.01
2023-01-09T00:14:06.838Z,98.01
2023-01-09T00:15:06.863Z,98.01
2023-01-09T00:16:06.816Z,98.11
2023-01-09T00:17:06.809Z,98.01
2023-01-09T00:18:06.786Z,98.11
2023-01-09T00:19:06.785Z,98.11
2023-01-09T00:20:06.829Z,98.11
2023-01-09T00:21:06.770Z,98.22
2023-01-09T00:22:06.734Z,98.22
2023-01-09T00:23:06.745Z,98.22
2023-01-09T00:24:06.730Z,98.11
2023-01-09T00:25:06.715Z,98.11
2023-01-09T00:26:06.707Z,98.01
2023-01-09T00:27:06.697Z,98.11
2023-01-09T00:28:06.706Z,98.27
2023-01-09T00:29:06.661Z,98.27
2023-01-09T00:30:06.652Z,98.37
2023-01-09T00:31:06.744Z,98.37
2023-01-09T00:32:06.737Z,98.47
2023-01-09T00:33:06.674Z,98.47
2023-01-09T00:34:06.648Z,98.57
2023-01-09T00:35:06.628Z,98.68
2023-01-09T00:36:06.602Z,98.57
2023-01-09T00:37:06.598Z,98.47
2023-01-09T00:38:06.583Z,98.47
2023-01-09T00:39:06.596Z,98.37
2023-01-09T00:40:06.582Z,98.47
2023-01-09T00:41:06.583Z,98.27
2023-01-09T00:42:06.588Z,98.47
2023-01-09T00:43:06.539Z,98.27
2023-01-09T00:44:06.488Z,98.27
2023-01-09T00:45:06.482Z,98.37
2023-01-09T00:46:06.513Z,98.27
2023-01-09T00:47:06.496Z,98.16
2023-01-09T00:48:06.490Z,98.16
2023-01-09T00:49:06.457Z,98.16
2023-01-09T00:50:06.511Z,98.16
2023-01-09T00:51:06.465Z,98.16
2023-01-09T00:52:06.503Z,98.06
2023-01-09T00:53:06.455Z,97.96
2023-01-09T00:54:06.429Z,97.96
2023-01-09T00:55:06.399Z,97.96
2023-01-09T00:56:06.399Z,97.96
2023-01-09T00:57:06.359Z,98.06
2023-01-09T00:58:06.398Z,98.06
2023-01-09T00:59:06.407Z,97.96
2023-01-09T01:00:06.373Z,97.75
2023-01-09T01:01:06.419Z,97.85
2023-01-09T01:02:06.615Z,98.06
2023-01-09T01:03:06.458Z,98.06
2023-01-09T01:04:06.342Z,97.96
2023-01-09T01:05:06.346Z,98.06
2023-01-09T01:06:06.351Z,97.85
2023-01-09T01:07:06.326Z,97.96
2023-01-09T01:08:06.307Z,97.85
2023-01-09T01:09:06.280Z,97.96
2023-01-09T01:10:06.241Z,97.96
2023-01-09T01:11:06.239Z,98.06
2023-01-09T01:12:06.211Z,98.06
2023-01-09T01:13:06.240Z,98.31
2023-01-09T01:14:06.233Z,98.41
2023-01-09T01:15:06.179Z,98.52
2023-01-09T01:16:06.196Z,98.52
2023-01-09T01:17:06.198Z,98.52
2023-01-09T01:18:06.141Z,98.52
2023-01-09T01:19:06.157Z,98.62
2023-01-09T01:20:06.361Z,98.62
2023-01-09T01:21:06.202Z,98.72
2023-01-09T01:22:06.134Z,98.83
2023-01-09T01:23:06.103Z,98.83
2023-01-09T01:24:06.497Z,98.62
2023-01-09T01:25:06.118Z,98.62
2023-01-09T01:26:06.094Z,98.62
2023-01-09T01:27:06.073Z,98.52
2023-01-09T01:28:06.035Z,98.62
2023-01-09T01:29:06.056Z,98.72
2023-01-09T01:30:06.020Z,98.62
2023-01-09T01:31:06.100Z,98.72
2023-01-09T01:32:06.025Z,98.83
2023-01-09T01:33:05.987Z,98.83
2023-01-09T01:34:06.017Z,98.83
2023-01-09T01:35:05.976Z,98.72
2023-01-09T01:36:06.005Z,98.83
2023-01-09T01:37:05.960Z,98.83
2023-01-09T01:38:05.973Z,98.83
2023-01-09T01:39:05.949Z,98.83
2023-01-09T01:40:05.933Z,98.83
2023-01-09T01:41:05.908Z,98.93
2023-01-09T01:42:05.929Z,98.93
2023-01-09T01:43:05.896Z,99.04
2023-01-09T01:44:05.889Z,99.04
2023-01-09T01:45:05.871Z,99.04
2023-01-09T01:46:05.946Z,99.04
2023-01-09T01:47:05.891Z,99.04
2023-01-09T01:48:05.876Z,99.14
2023-01-09T01:49:05.823Z,99.34
2023-01-09T01:50:05.806Z,99.29
2023-01-09T01:51:05.852Z,99.24
2023-01-09T01:52:05.784Z,99.39
2023-01-09T01:53:05.786Z,99.39
2023-01-09T01:54:05.773Z,99.39
2023-01-09T01:55:05.766Z,99.39
2023-01-09T01:56:05.770Z,99.49
2023-01-09T01:57:05.832Z,99.39
2023-01-09T01:58:05.721Z,99.49
2023-01-09T01:59:05.992Z,99.74
2023-01-09T02:00:05.764Z,99.95
2023-01-09T02:01:06.123Z,99.95
2023-01-09T02:02:06.061Z,99.99
2023-01-09T02:03:05.845Z,99.99
2023-01-09T02:04:05.780Z,99.99
2023-01-09T02:05:05.689Z,99.99
2023-01-09T02:06:05.635Z,99.99
2023-01-09T02:07:05.673Z,99.99
2023-01-09T02:08:05.665Z,99.99
2023-01-09T02:09:05.642Z,99.99
2023-01-09T02:10:05.725Z,99.99
2023-01-09T02:11:05.705Z,99.99
2023-01-09T02:12:05.599Z,99.99
2023-01-09T02:13:05.613Z,99.99
2023-01-09T02:14:05.596Z,99.99
2023-01-09T02:15:05.576Z,99.99
2023-01-09T02:16:05.601Z,99.99
2023-01-09T02:17:05.525Z,99.99
2023-01-09T02:18:05.668Z,99.99
2023-01-09T02:19:05.803Z,99.99
2023-01-09T02:20:05.964Z,99.99
2023-01-09T02:21:05.881Z,99.99
2023-01-09T02:22:05.470Z,99.99
2023-01-09T02:23:05.489Z,99.99
2023-01-09T02:24:05.492Z,99.99
2023-01-09T02:25:05.537Z,99.99
2023-01-09T02:26:05.570Z,99.99
2023-01-09T02:27:05.425Z,99.99
2023-01-09T02:28:05.540Z,99.99
2023-01-09T02:29:05.740Z,99.95
2023-01-09T02:30:05.946Z,99.99
2023-01-09T02:31:05.448Z,99.99
2023-01-09T02:32:05.467Z,99.99
2023-01-09T02:33:05.395Z,99.85
2023-01-09T02:34:05.482Z,99.85
2023-01-09T02:35:05.524Z,99.85
2023-01-09T02:36:05.348Z,99.95
2023-01-09T02:37:05.388Z,99.95
2023-01-09T02:38:05.309Z,99.95
2023-01-09T02:39:05.390Z,99.99
2023-01-09T02:40:05.348Z,99.99
2023-01-09T02:41:05.327Z,99.99
2023-01-09T02:42:05.306Z,99.99
2023-01-09T02:43:05.323Z,99.99
2023-01-09T02:44:05.344Z,99.99
2023-01-09T02:45:05.340Z,99.99
2023-01-09T02:46:05.524Z,99.99
2023-01-09T02:47:05.232Z,99.99
2023-01-09T02:48:05.220Z,99.99
2023-01-09T02:49:05.256Z,99.95
2023-01-09T02:50:06.169Z,99.95
2023-01-09T02:51:05.219Z,99.95
2023-01-09T02:52:05.294Z,99.54
2023-01-09T02:53:05.178Z,99.64
2023-01-09T02:54:05.167Z,99.54
2023-01-09T02:55:05.182Z,99.64
2023-01-09T02:56:05.140Z,99.85
2023-01-09T02:57:05.099Z,99.95
2023-01-09T02:58:05.150Z,99.85
2023-01-09T02:59:05.133Z,99.64
2023-01-09T03:00:05.164Z,99.64
2023-01-09T03:01:05.243Z,99.64
2023-01-09T03:02:05.237Z,99.64
2023-01-09T03:03:05.106Z,99.74
2023-01-09T03:04:05.067Z,99.74
2023-01-09T03:05:05.022Z,99.74
2023-01-09T03:06:05.053Z,99.64
2023-01-09T03:07:05.047Z,99.64
2023-01-09T03:08:05.049Z,99.54
2023-01-09T03:09:04.990Z,99.54
2023-01-09T03:10:04.992Z,99.33
2023-01-09T03:11:04.994Z,99.43
2023-01-09T03:12:04.982Z,99.43
2023-01-09T03:13:05.027Z,99.43
2023-01-09T03:14:04.974Z,99.43
2023-01-09T03:15:05.057Z,99.33
2023-01-09T03:16:05.014Z,99.43
2023-01-09T03:17:04.937Z,99.74
2023-01-09T03:18:04.902Z,99.43
2023-01-09T03:19:04.924Z,99.43
2023-01-09T03:20:04.986Z,99.54
2023-01-09T03:21:04.902Z,99.74
2023-01-09T03:22:04.906Z,99.85
2023-01-09T03:23:04.916Z,99.95
2023-01-09T03:24:04.869Z,99.95
2023-01-09T03:25:04.847Z,99.99
2023-01-09T03:26:04.835Z,99.99
2023-01-09T03:27:04.815Z,99.99
2023-01-09T03:28:04.791Z,99.74
2023-01-09T03:29:04.853Z,99.74
2023-01-09T03:30:04.817Z,99.85
2023-01-09T03:31:04.801Z,99.85
2023-01-09T03:32:04.787Z,99.74
2023-01-09T03:33:04.757Z,99.54
2023-01-09T03:34:04.742Z,99.49
2023-01-09T03:35:04.787Z,99.18
2023-01-09T03:36:04.773Z,99.18
2023-01-09T03:37:04.730Z,99.39
2023-01-09T03:38:06.619Z,99.29
2023-01-09T03:39:04.701Z,98.97
2023-01-09T03:40:04.699Z,98.97
2023-01-09T03:41:04.691Z,98.77
2023-01-09T03:42:04.718Z,98.77
2023-01-09T03:43:04.654Z,98.72
2023-01-09T03:44:04.645Z,98.72
2023-01-09T03:45:04.671Z,98.72
2023-01-09T03:46:04.662Z,98.52
2023-01-09T03:47:04.577Z,98.41
2023-01-09T03:48:04.628Z,98.31
2023-01-09T03:49:04.591Z,98.00
2023-01-09T03:50:04.579Z,97.89
2023-01-09T03:51:04.550Z,97.69
2023-01-09T03:52:04.619Z,97.64
2023-01-09T03:53:04.563Z,97.33
2023-01-09T03:54:04.571Z,97.13
2023-01-09T03:55:04.553Z,97.02
2023-01-09T03:56:04.527Z,96.82
2023-01-09T03:57:04.510Z,96.82
2023-01-09T03:58:04.542Z,96.61
2023-01-09T03:59:04.521Z,96.61
2023-01-09T04:00:04.516Z,96.61
2023-01-09T04:01:04.549Z,96.51
2023-01-09T04:02:04.510Z,96.51
2023-01-09T04:03:04.444Z,96.41
2023-01-09T04:04:04.535Z,96.20
2023-01-09T04:05:04.460Z,96.05
2023-01-09T04:06:04.388Z,95.99
2023-01-09T04:07:04.381Z,96.20
2023-01-09T04:08:04.353Z,96.09
2023-01-09T04:09:04.405Z,96.20
2023-01-09T04:10:04.383Z,96.09
2023-01-09T04:11:04.333Z,96.09
2023-01-09T04:12:04.436Z,96.20
2023-01-09T04:13:04.327Z,96.30
2023-01-09T04:14:04.349Z,96.30
2023-01-09T04:15:04.316Z,96.30
2023-01-09T04:16:04.383Z,96.30
2023-01-09T04:17:04.537Z,96.20
2023-01-09T04:18:04.312Z,96.30
2023-01-09T04:19:04.285Z,96.51
2023-01-09T04:20:04.266Z,96.61
2023-01-09T04:21:04.257Z,96.67
2023-01-09T04:22:04.253Z,96.36
2023-01-09T04:23:04.215Z,96.36
2023-01-09T04:24:04.285Z,96.36
2023-01-09T04:25:04.229Z,96.26
2023-01-09T04:26:04.206Z,96.26
2023-01-09T04:27:04.308Z,96.15
2023-01-09T04:28:04.231Z,96.15
2023-01-09T04:29:04.153Z,96.05
2023-01-09T04:30:04.238Z,96.15
2023-01-09T04:31:04.134Z,95.95
2023-01-09T04:32:04.174Z,96.05
2023-01-09T04:33:04.147Z,96.05
2023-01-09T04:34:04.139Z,96.05
2023-01-09T04:35:04.108Z,96.26
2023-01-09T04:36:04.109Z,96.26
2023-01-09T04:37:04.086Z,96.15
2023-01-09T04:38:04.126Z,96.05
2023-01-09T04:39:04.168Z,96.05
2023-01-09T04:40:04.111Z,96.05
2023-01-09T04:41:04.098Z,96.05
2023-01-09T04:42:04.077Z,95.95
2023-01-09T04:43:04.029Z,96.05
2023-01-09T04:44:04.000Z,96.15
2023-01-09T04:45:04.010Z,95.95
2023-01-09T04:46:04.080Z,95.84
2023-01-09T04:47:03.981Z,95.74
2023-01-09T04:48:03.957Z,95.74
2023-01-09T04:49:03.951Z,95.64
2023-01-09T04:50:03.974Z,95.74
2023-01-09T04:51:03.952Z,95.84
2023-01-09T04:52:03.963Z,95.64
2023-01-09T04:53:03.928Z,95.74
2023-01-09T04:54:03.893Z,95.95
2023-01-09T04:55:03.905Z,96.05
2023-01-09T04:56:03.976Z,95.95
2023-01-09T04:57:03.905Z,95.84
2023-01-09T04:58:03.909Z,95.84
2023-01-09T04:59:03.924Z,95.64
2023-01-09T05:00:03.935Z,95.53
2023-01-09T05:01:03.965Z,95.53
2023-01-09T05:02:03.923Z,95.64
2023-01-09T05:03:03.801Z,95.64
2023-01-09T05:04:03.817Z,95.84
2023-01-09T05:05:03.781Z,95.84
2023-01-09T05:06:03.884Z,96.05
2023-01-09T05:07:03.777Z,96.15
2023-01-09T05:08:03.771Z,96.15
2023-01-09T05:09:03.779Z,96.47
2023-01-09T05:10:03.899Z,96.56
2023-01-09T05:11:03.758Z,96.47
2023-01-09T05:12:03.699Z,96.26
2023-01-09T05:13:03.704Z,96.47
2023-01-09T05:14:03.724Z,96.26
2023-01-09T05:15:03.756Z,96.47
2023-01-09T05:16:03.665Z,96.52
2023-01-09T05:17:03.664Z,96.62
2023-01-09T05:18:03.644Z,96.52
2023-01-09T05:19:03.657Z,96.62
2023-01-09T05:20:03.628Z,96.73
2023-01-09T05:21:03.683Z,96.73
2023-01-09T05:22:03.588Z,96.73
2023-01-09T05:23:03.663Z,96.73
2023-01-09T05:24:03.614Z,97.04
2023-01-09T05:25:03.586Z,97.04
2023-01-09T05:26:03.595Z,97.04
2023-01-09T05:27:03.559Z,97.14
2023-01-09T05:28:03.533Z,97.25
2023-01-09T05:29:03.552Z,97.34
2023-01-09T05:30:03.564Z,97.45
2023-01-09T05:31:03.522Z,97.66
2023-01-09T05:32:03.540Z,97.66
2023-01-09T05:33:03.582Z,97.66
2023-01-09T05:34:03.484Z,97.86
2023-01-09T05:35:03.487Z,98.07
2023-01-09T05:36:03.483Z,97.97
2023-01-09T05:37:03.441Z,98.07
2023-01-09T05:38:03.467Z,98.07
2023-01-09T05:39:03.445Z,97.97
2023-01-09T05:40:03.526Z,98.02
2023-01-09T05:41:03.399Z,99.06
2023-01-09T05:42:03.416Z,98.65
2023-01-09T05:43:03.396Z,99.47
2023-01-09T05:44:03.365Z,99.47
2023-01-09T05:45:03.425Z,98.85
2023-01-09T05:46:03.398Z,98.33
2023-01-09T05:47:03.443Z,98.23
2023-01-09T05:48:03.348Z,98.33
2023-01-09T05:49:03.319Z,99.52
2023-01-09T05:50:03.423Z,98.70
2023-01-09T05:51:03.305Z,98.19
2023-01-09T05:52:03.320Z,98.44
2023-01-09T05:53:03.299Z,98.54
2023-01-09T05:54:03.309Z,98.75
2023-01-09T05:55:03.289Z,98.85
2023-01-09T05:56:03.325Z,98.96
2023-01-09T05:57:03.278Z,99.16
2023-01-09T05:58:03.213Z,98.85
2023-01-09T05:59:03.263Z,98.75
2023-01-09T06:00:03.324Z,98.96
2023-01-09T06:01:03.223Z,99.26
2023-01-09T06:02:03.345Z,99.47
2023-01-09T06:03:03.196Z,99.88
2023-01-09T06:04:03.146Z,99.99
2023-01-09T06:05:03.144Z,99.99
2023-01-09T06:06:03.158Z,99.99
2023-01-09T06:07:03.156Z,99.99
2023-01-09T06:08:03.120Z,99.99
2023-01-09T06:09:03.108Z,99.99
2023-01-09T06:10:03.124Z,99.99
2023-01-09T06:11:03.117Z,99.99
2023-01-09T06:12:03.052Z,99.99
2023-01-09T06:13:03.098Z,99.99
2023-01-09T06:14:03.044Z,99.99
2023-01-09T06:15:03.063Z,99.99
2023-01-09T06:16:03.203Z,99.99
2023-01-09T06:17:03.017Z,99.99
2023-01-09T06:18:03.022Z,99.99
2023-01-09T06:19:03.017Z,99.99
2023-01-09T06:20:03.015Z,99.99
2023-01-09T06:21:03.009Z,99.99
2023-01-09T06:22:02.970Z,99.99
2023-01-09T06:23:03.070Z,99.99
2023-01-09T06:24:02.977Z,99.99
2023-01-09T06:25:02.937Z,99.99
2023-01-09T06:26:02.942Z,99.99
2023-01-09T06:27:02.938Z,99.99
2023-01-09T06:28:02.947Z,99.99
2023-01-09T06:29:02.913Z,99.99
2023-01-09T06:30:02.889Z,99.99
2023-01-09T06:31:02.924Z,99.99
2023-01-09T06:32:02.854Z,99.99
2023-01-09T06:33:02.886Z,99.99
2023-01-09T06:34:02.859Z,99.99
2023-01-09T06:35:02.854Z,99.99
2023-01-09T06:36:02.820Z,99.99
2023-01-09T06:37:02.862Z,99.99
2023-01-09T06:38:02.808Z,99.99
2023-01-09T06:39:02.757Z,99.99
2023-01-09T06:40:02.763Z,99.99
2023-01-09T06:41:02.748Z,99.99
2023-01-09T06:42:02.758Z,99.99
2023-01-09T06:43:02.881Z,99.99
2023-01-09T06:44:02.898Z,99.99
2023-01-09T06:45:02.771Z,99.99
2023-01-09T06:46:02.815Z,99.99
2023-01-09T06:47:02.829Z,99.99
2023-01-09T06:48:02.709Z,99.99
2023-01-09T06:49:02.831Z,99.99
2023-01-09T06:50:02.669Z,99.99
2023-01-09T06:51:02.621Z,99.99
2023-01-09T06:52:02.608Z,99.99
2023-01-09T06:53:02.842Z,99.99
2023-01-09T06:54:02.666Z,99.99
2023-01-09T06:55:02.728Z,99.99
2023-01-09T06:56:02.860Z,99.99
2023-01-09T06:57:02.635Z,99.99
2023-01-09T06:58:02.605Z,99.99
2023-01-09T06:59:02.531Z,99.99
2023-01-09T07:00:02.577Z,99.99
2023-01-09T07:01:02.697Z,99.99
2023-01-09T07:02:02.527Z,99.99
2023-01-09T07:03:02.488Z,99.99
2023-01-09T07:04:02.566Z,99.99
2023-01-09T07:05:02.549Z,99.99
2023-01-09T07:06:02.655Z,99.99
2023-01-09T07:07:02.462Z,99.99
2023-01-09T07:08:02.479Z,99.99
2023-01-09T07:09:02.506Z,99.99
2023-01-09T07:10:02.534Z,99.99
2023-01-09T07:11:02.415Z,99.99
2023-01-09T07:12:02.404Z,99.99
2023-01-09T07:13:02.400Z,99.99
2023-01-09T07:14:02.444Z,99.99
2023-01-09T07:15:02.374Z,99.99
2023-01-09T07:16:02.397Z,99.99
2023-01-09T07:17:02.353Z,99.99
2023-01-09T07:18:02.340Z,99.99
2023-01-09T07:19:02.299Z,99.99
2023-01-09T07:20:02.293Z,99.99
2023-01-09T07:21:02.295Z,99.99
2023-01-09T07:22:02.281Z,99.99
2023-01-09T07:23:02.321Z,99.99
2023-01-09T07:24:02.270Z,99.99
2023-01-09T07:25:02.292Z,99.99
2023-01-09T07:26:02.266Z,99.99
2023-01-09T07:27:02.297Z,99.99
2023-01-09T07:28:02.241Z,99.99
2023-01-09T07:29:02.227Z,99.99
2023-01-09T07:30:02.187Z,99.99
2023-01-09T07:31:02.213Z,99.99
2023-01-09T07:32:02.222Z,99.99
2023-01-09T07:33:03.998Z,99.99
2023-01-09T07:34:02.172Z,99.99
2023-01-09T07:35:02.169Z,99.99
2023-01-09T07:36:02.198Z,99.99
2023-01-09T07:37:02.256Z,99.99
2023-01-09T07:38:02.139Z,99.99
2023-01-09T07:39:02.168Z,99.99
2023-01-09T07:40:02.088Z,99.99
2023-01-09T07:41:02.098Z,99.99
2023-01-09T07:42:02.119Z,99.99
2023-01-09T07:43:02.174Z,99.99
2023-01-09T07:44:02.073Z,99.99
2023-01-09T07:45:02.057Z,99.99
2023-01-09T07:46:02.088Z,99.99
2023-01-09T07:47:02.037Z,99.99
2023-01-09T07:48:02.049Z,99.99
2023-01-09T07:49:02.026Z,99.99
2023-01-09T07:50:02.050Z,99.99
2023-01-09T07:51:01.999Z,99.99
2023-01-09T07:52:01.960Z,99.99
2023-01-09T07:53:02.039Z,99.99
2023-01-09T07:54:01.947Z,99.99
2023-01-09T07:55:01.943Z,99.99
2023-01-09T07:56:01.917Z,99.99
2023-01-09T07:57:01.927Z,99.99
2023-01-09T07:58:01.910Z,99.99
2023-01-09T07:59:01.924Z,99.99
2023-01-09T08:00:01.922Z,99.99
2023-01-09T08:01:01.949Z,99.99
2023-01-09T08:02:01.897Z,99.99
2023-01-09T08:03:01.892Z,99.99
2023-01-09T08:04:01.871Z,99.99
2023-01-09T08:05:01.845Z,99.99
2023-01-09T08:06:01.834Z,99.99
2023-01-09T08:07:01.805Z,99.99
2023-01-09T08:08:01.838Z,99.99
2023-01-09T08:09:01.810Z,99.99
2023-01-09T08:10:01.804Z,99.99
2023-01-09T08:11:01.757Z,99.99
2023-01-09T08:12:01.747Z,99.99
2023-01-09T08:13:01.854Z,99.99
2023-01-09T08:14:01.769Z,99.99
2023-01-09T08:15:01.733Z,99.99
2023-01-09T08:16:01.760Z,99.99
2023-01-09T08:17:01.702Z,99.99
2023-01-09T08:18:01.681Z,99.99
2023-01-09T08:19:01.701Z,99.99
2023-01-09T08:20:01.797Z,99.99
2023-01-09T08:21:01.686Z,99.99
2023-01-09T08:22:01.672Z,99.99
2023-01-09T08:23:01.660Z,99.99
2023-01-09T08:24:01.655Z,99.99
2023-01-09T08:25:01.698Z,99.99
2023-01-09T08:26:01.618Z,99.99
2023-01-09T08:27:01.607Z,99.99
2023-01-09T08:28:01.625Z,99.99
2023-01-09T08:29:01.678Z,99.99
2023-01-09T08:30:01.635Z,99.99
2023-01-09T08:31:01.585Z,99.99
2023-01-09T08:32:01.562Z,99.99
2023-01-09T08:33:01.527Z,99.99
2023-01-09T08:34:01.575Z,99.99
2023-01-09T08:35:01.593Z,99.99
2023-01-09T08:36:01.578Z,99.99
2023-01-09T08:37:01.520Z,99.99
2023-01-09T08:38:01.496Z,99.99
2023-01-09T08:39:01.484Z,99.99
2023-01-09T08:40:01.490Z,99.99
2023-01-09T08:41:01.470Z,99.99
2023-01-09T08:42:01.477Z,99.99
2023-01-09T08:43:01.476Z,99.99
2023-01-09T08:44:01.445Z,99.99
2023-01-09T08:45:01.511Z,99.99
2023-01-09T08:46:01.523Z,99.99
2023-01-09T08:47:01.392Z,99.99
2023-01-09T08:48:01.398Z,99.99
2023-01-09T08:49:01.378Z,99.99
2023-01-09T08:50:01.391Z,99.99
2023-01-09T08:51:01.416Z,99.99
2023-01-09T08:52:01.340Z,99.99
2023-01-09T08:53:01.344Z,99.99
2023-01-09T08:54:01.320Z,99.99
2023-01-09T08:55:01.344Z,99.99
2023-01-09T08:56:01.351Z,99.99
2023-01-09T08:57:01.297Z,99.99
2023-01-09T08:58:01.300Z,99.99
2023-01-09T08:59:01.245Z,99.99
2023-01-09T09:00:01.269Z,99.99
2023-01-09T09:01:01.253Z,99.99
2023-01-09T09:02:01.245Z,99.99
2023-01-09T09:03:01.277Z,99.99
2023-01-09T09:04:01.277Z,99.99
2023-01-09T09:05:01.224Z,99.99
2023-01-09T09:06:01.211Z,99.99
2023-01-09T09:07:01.187Z,99.99
2023-01-09T09:08:01.200Z,99.99
2023-01-09T09:09:01.165Z,99.99
2023-01-09T09:10:01.195Z,99.99
2023-01-09T09:11:01.117Z,99.99
2023-01-09T09:12:01.141Z,99.99
2023-01-09T09:13:01.187Z,99.99
2023-01-09T09:14:01.154Z,99.99
2023-01-09T09:15:01.142Z,99.99
2023-01-09T09:16:01.151Z,99.99
2023-01-09T09:17:01.141Z,99.99
2023-01-09T09:18:01.079Z,99.99
2023-01-09T09:19:01.068Z,99.99
2023-01-09T09:20:01.048Z,99.99
2023-01-09T09:21:01.038Z,99.99
2023-01-09T09:22:01.037Z,99.99
2023-01-09T09:23:01.047Z,99.99
2023-01-09T09:24:00.981Z,99.99
2023-01-09T09:25:01.032Z,99.99
2023-01-09T09:26:00.963Z,99.99
2023-01-09T09:27:00.972Z,99.99
2023-01-09T09:28:01.111Z,99.99
2023-01-09T09:29:00.932Z,99.99
2023-01-09T09:30:00.971Z,99.99
2023-01-09T09:31:01.039Z,99.99
2023-01-09T09:32:01.161Z,99.99
2023-01-09T09:33:00.972Z,99.99
2023-01-09T09:34:00.903Z,99.99
2023-01-09T09:35:00.886Z,99.99
2023-01-09T09:36:00.933Z,99.99
2023-01-09T09:37:00.987Z,99.99
2023-01-09T09:38:02.635Z,99.99
2023-01-09T09:39:01.033Z,99.99
2023-01-09T09:40:09.592Z,99.99
2023-01-09T09:41:01.847Z,99.99
2023-01-09T09:42:01.469Z,99.99
2023-01-09T09:43:00.792Z,99.99
2023-01-09T09:44:00.842Z,99.99
2023-01-09T09:45:00.816Z,99.99
2023-01-09T09:46:00.960Z,99.99
2023-01-09T09:47:00.921Z,99.99
2023-01-09T09:48:01.639Z,99.99
2023-01-09T09:49:00.882Z,99.99
2023-01-09T09:50:00.924Z,99.99
2023-01-09T09:51:00.930Z,99.99
2023-01-09T09:52:00.858Z,99.99
2023-01-09T09:53:00.789Z,99.99
2023-01-09T09:54:00.721Z,99.99
2023-01-09T09:55:00.961Z,99.99
2023-01-09T09:56:00.847Z,99.99
2023-01-09T09:57:00.763Z,99.99
2023-01-09T09:58:00.733Z,99.99
2023-01-09T09:59:00.863Z,99.99
2023-01-09T10:00:00.664Z,99.99
2023-01-09T10:01:00.764Z,99.86
2023-01-09T10:02:01.542Z,99.65
2023-01-09T10:03:00.835Z,99.34
2023-01-09T10:04:00.846Z,99.55
2023-01-09T10:05:00.801Z,99.76
2023-01-09T10:06:01.108Z,99.76
2023-01-09T10:07:00.726Z,99.86
2023-01-09T10:08:11.564Z,99.76
2023-01-09T10:09:01.634Z,99.55
2023-01-09T10:10:00.762Z,99.76
2023-01-09T10:11:00.667Z,99.76
2023-01-09T10:12:00.571Z,99.76
2023-01-09T10:13:00.643Z,99.71
2023-01-09T10:14:00.472Z,99.71
2023-01-09T10:15:00.556Z,99.81
2023-01-09T10:16:00.694Z,99.71
2023-01-09T10:17:00.557Z,99.71
2023-01-09T10:18:00.586Z,99.51
2023-01-09T10:19:00.518Z,99.30
2023-01-09T10:20:00.730Z,99.30
2023-01-09T10:21:00.669Z,99.30
2023-01-09T10:22:00.588Z,99.30
2023-01-09T10:23:00.439Z,99.30
2023-01-09T10:24:00.507Z,99.25
2023-01-09T10:25:01.403Z,99.15
2023-01-09T10:26:00.637Z,99.15
2023-01-09T10:27:00.608Z,98.94
2023-01-09T10:28:00.468Z,98.94
2023-01-09T10:29:00.438Z,98.94
2023-01-09T10:30:00.391Z,98.74
2023-01-09T10:31:00.608Z,98.63
2023-01-09T10:32:00.504Z,98.63
2023-01-09T10:33:00.330Z,98.63
2023-01-09T10:34:00.484Z,98.74
2023-01-09T10:35:00.515Z,98.84
2023-01-09T10:36:00.322Z,98.94
2023-01-09T10:37:00.368Z,98.94
2023-01-09T10:38:00.286Z,99.05
2023-01-09T10:39:00.223Z,99.15
2023-01-09T10:40:00.259Z,99.05
2023-01-09T10:41:01.822Z,98.94
2023-01-09T10:42:00.255Z,99.05
2023-01-09T10:43:00.183Z,99.25
2023-01-09T10:44:00.159Z,99.46
2023-01-09T10:45:00.154Z,99.46
2023-01-09T10:46:00.185Z,99.46
2023-01-09T10:47:00.288Z,99.35
2023-01-09T10:48:00.137Z,99.35
2023-01-09T10:49:00.096Z,99.25
2023-01-09T10:50:00.149Z,99.25
2023-01-09T10:51:00.114Z,99.46
2023-01-09T10:52:00.121Z,99.35
2023-01-09T10:53:00.045Z,99.35
2023-01-09T10:54:00.231Z,99.25
2023-01-09T10:55:00.047Z,99.10
2023-01-09T10:56:00.060Z,98.79
2023-01-09T10:57:00.120Z,98.59
2023-01-09T10:58:00.058Z,98.49
2023-01-09T10:59:00.109Z,98.28
2023-01-09T11:00:00.013Z,98.38
2023-01-09T11:00:59.960Z,98.38
2023-01-09T11:02:00.024Z,98.49
2023-01-09T11:03:00.160Z,98.49
2023-01-09T11:03:59.937Z,98.59
2023-01-09T11:04:59.955Z,98.59
2023-01-09T11:06:00.176Z,98.59
2023-01-09T11:06:59.965Z,98.38
2023-01-09T11:07:59.940Z,98.49
2023-01-09T11:09:00.029Z,98.69
2023-01-09T11:09:59.977Z,98.69
2023-01-09T11:10:59.881Z,98.49
2023-01-09T11:11:59.893Z,98.38
2023-01-09T11:12:59.887Z,98.28
2023-01-09T11:13:59.873Z,98.38
2023-01-09T11:14:59.813Z,98.38
2023-01-09T11:15:59.896Z,98.28
2023-01-09T11:16:59.813Z,98.49
2023-01-09T11:17:59.793Z,98.49
2023-01-09T11:18:59.804Z,98.28
2023-01-09T11:19:59.799Z,98.38
2023-01-09T11:20:59.750Z,98.49
2023-01-09T11:21:59.803Z,98.59
2023-01-09T11:22:59.791Z,98.44
2023-01-09T11:23:59.728Z,98.13
2023-01-09T11:24:59.744Z,98.18
2023-01-09T11:25:59.881Z,98.28
2023-01-09T11:26:59.745Z,98.28
2023-01-09T11:28:00.126Z,98.49
2023-01-09T11:28:59.697Z,98.49
2023-01-09T11:29:59.680Z,98.38
2023-01-09T11:30:59.709Z,98.28
2023-01-09T11:31:59.700Z,98.38
2023-01-09T11:32:59.642Z,98.59
2023-01-09T11:33:59.658Z,98.69
2023-01-09T11:34:59.753Z,98.79
2023-01-09T11:35:59.765Z,98.90
2023-01-09T11:36:59.631Z,98.90
2023-01-09T11:37:59.667Z,98.59
2023-01-09T11:38:59.553Z,98.79
2023-01-09T11:39:59.785Z,98.69
2023-01-09T11:40:59.549Z,98.59
2023-01-09T11:41:59.531Z,98.28
2023-01-09T11:42:59.863Z,98.28
2023-01-09T11:43:59.654Z,97.97
2023-01-09T11:44:59.526Z,97.45
2023-01-09T11:46:01.524Z,97.45
2023-01-09T11:46:59.586Z,97.25
2023-01-09T11:47:59.489Z,96.94
2023-01-09T11:48:59.669Z,96.73
2023-01-09T11:49:59.443Z,96.73
2023-01-09T11:50:59.522Z,96.59
2023-01-09T11:51:59.501Z,95.97
2023-01-09T11:52:59.572Z,95.56
2023-01-09T11:53:59.543Z,95.15
2023-01-09T11:54:59.650Z,95.15
2023-01-09T11:55:59.413Z,94.74
2023-01-09T11:56:59.592Z,94.64
2023-01-09T11:57:59.381Z,94.23
2023-01-09T11:58:59.543Z,93.92
2023-01-09T11:59:59.430Z,93.82
2023-01-09T12:00:59.442Z,94.02
2023-01-09T12:01:59.534Z,93.71
2023-01-09T12:02:59.399Z,93.82
2023-01-09T12:03:59.324Z,93.51
2023-01-09T12:04:59.292Z,93.20
2023-01-09T12:05:59.309Z,92.99
2023-01-09T12:06:59.295Z,92.79
2023-01-09T12:07:59.421Z,92.64
2023-01-09T12:08:59.398Z,92.03
2023-01-09T12:09:59.376Z,91.93
2023-01-09T12:10:59.446Z,91.10
2023-01-09T12:11:59.311Z,91.00
2023-01-09T12:12:59.410Z,91.31
2023-01-09T12:13:59.233Z,90.69
2023-01-09T12:14:59.218Z,90.48
2023-01-09T12:15:59.268Z,90.24
2023-01-09T12:16:59.252Z,90.03
2023-01-09T12:17:59.347Z,89.83
2023-01-09T12:18:59.201Z,88.70
2023-01-09T12:19:59.198Z,88.59
2023-01-09T12:20:59.138Z,88.39
2023-01-09T12:21:59.137Z,87.88
2023-01-09T12:22:59.152Z,87.67
2023-01-09T12:23:59.159Z,87.57
2023-01-09T12:24:59.066Z,87.32
2023-01-09T12:25:59.069Z,87.73
2023-01-09T12:26:59.130Z,86.77
2023-01-09T12:27:59.178Z,86.46
2023-01-09T12:28:59.039Z,86.36
2023-01-09T12:29:59.033Z,85.85
2023-01-09T12:30:59.084Z,85.85
2023-01-09T12:31:59.083Z,85.23
2023-01-09T12:32:59.203Z,84.55
2023-01-09T12:33:59.054Z,85.06
2023-01-09T12:34:58.995Z,85.58
2023-01-09T12:35:59.018Z,85.17
2023-01-09T12:36:59.495Z,85.38
2023-01-09T12:37:58.990Z,85.89
2023-01-09T12:38:58.946Z,85.68
2023-01-09T12:39:58.999Z,85.54
2023-01-09T12:40:58.947Z,84.20
2023-01-09T12:41:58.964Z,83.90
2023-01-09T12:42:58.894Z,83.69
2023-01-09T12:43:58.869Z,83.49
2023-01-09T12:44:58.867Z,83.28
2023-01-09T12:45:58.913Z,83.28
2023-01-09T12:46:58.921Z,83.14
2023-01-09T12:47:58.863Z,83.04
2023-01-09T12:48:58.831Z,83.45
2023-01-09T12:49:58.827Z,83.76
2023-01-09T12:50:58.890Z,82.63
2023-01-09T12:51:58.760Z,81.50